Time;durP1;ratioP1;P1;durP2;ratioP2;P2;SDS_P1;SDS_P2;PMS_P1;PMS_P2;Temp;Humidity;BMP_temperature;BMP_pressure;BME280_temperature;BME280_humidity;BME280_pressure;Samples;Min_cycle;Max_cycle;Signal;HPM_P1;HPM_P2
2022/01/21 00:02:18;;;;;;;;;97.33;84.00;;;;;;;;5092762;28;8825;-70
2022/01/21 00:04:43;;;;;;;;;98.67;88.00;;;;;;;;5090946;28;9032;-70
2022/01/21 00:07:08;;;;;;;;;109.33;104.67;;;;;;;;5092954;28;8802;-71
2022/01/21 00:09:34;;;;;;;;;105.00;97.67;;;;;;;;5092327;28;8809;-70
2022/01/21 00:11:59;;;;;;;;;107.25;102.75;;;;;;;;5092760;28;8817;-70
2022/01/21 00:14:24;;;;;;;;;109.00;105.00;;;;;;;;5092756;28;8805;-70
2022/01/21 00:16:50;;;;;;;;;120.33;119.67;;;;;;;;5092691;28;8801;-70
2022/01/21 00:19:17;;;;;;;;;131.25;129.50;;;;;;;;5092356;28;9577;-70
2022/01/21 00:30:12;;;;;;;;;94.40;82.80;;;;;;;;5092608;28;8774;-70
2022/01/21 00:32:39;;;;;;;;;85.40;70.60;;;;;;;;5080314;28;8796;-70
2022/01/21 00:35:04;;;;;;;;;96.80;83.20;;;;;;;;5092419;28;8786;-70
2022/01/21 00:37:30;;;;;;;;;92.20;76.00;;;;;;;;5091248;28;8852;-70
2022/01/21 00:39:58;;;;;;;;;81.25;67.50;;;;;;;;5092289;28;8852;-70
2022/01/21 00:44:50;;;;;;;;;74.25;63.00;;;;;;;;5087858;28;11623;-70
2022/01/21 00:47:16;;;;;;;;;76.75;61.25;;;;;;;;5093073;28;8793;-70
2022/01/21 00:49:41;;;;;;;;;70.67;59.00;;;;;;;;5094462;28;8821;-70
2022/01/21 00:52:06;;;;;;;;;78.75;64.75;;;;;;;;5094561;28;9667;-70
2022/01/21 00:54:32;;;;;;;;;79.00;64.67;;;;;;;;5096172;28;9593;-70
2022/01/21 00:56:57;;;;;;;;;73.75;62.00;;;;;;;;5095595;28;11577;-70
2022/01/21 00:59:22;;;;;;;;;75.67;64.00;;;;;;;;5090550;28;8867;-70
2022/01/21 01:01:48;;;;;;;;;70.75;58.75;;;;;;;;5087501;28;11742;-70
2022/01/21 01:04:13;;;;;;;;;71.00;59.33;;;;;;;;5095737;28;8893;-70
2022/01/21 01:06:38;;;;;;;;;77.75;64.00;;;;;;;;5095769;28;8848;-70
2022/01/21 01:09:04;;;;;;;;;68.00;57.67;;;;;;;;5094526;28;8924;-70
2022/01/21 01:11:48;;;;;;;;;75.00;62.50;;;;;;;;5095949;28;8786;-70
2022/01/21 01:22:56;;;;;;;;;66.50;57.50;;;;;;;;5094845;28;8841;-70
2022/01/21 01:28:05;;;;;;;;;54.75;47.25;;;;;;;;5091389;28;8746;-70
2022/01/21 01:30:32;;;;;;;;;63.75;52.25;;;;;;;;5095727;28;9603;-70
2022/01/21 01:32:59;;;;;;;;;69.25;55.00;;;;;;;;5095166;28;8829;-70
2022/01/21 01:35:26;;;;;;;;;60.00;52.50;;;;;;;;5095272;28;8778;-70
2022/01/21 01:40:24;;;;;;;;;63.50;55.25;;;;;;;;5095355;28;8813;-70
2022/01/21 01:50:53;;;;;;;;;62.75;54.00;;;;;;;;5094404;28;8794;-70
2022/01/21 01:53:21;;;;;;;;;71.25;58.25;;;;;;;;5095386;28;9790;-70
2022/01/21 01:55:47;;;;;;;;;58.75;50.25;;;;;;;;5094793;28;8908;-70
2022/01/21 01:58:14;;;;;;;;;65.67;54.33;;;;;;;;5094886;28;8863;-70
2022/01/21 02:00:40;;;;;;;;;49.75;46.00;;;;;;;;5079617;28;12585;-70
2022/01/21 02:03:06;;;;;;;;;56.75;49.75;;;;;;;;5095156;28;8908;-70
2022/01/21 02:05:31;;;;;;;;;66.50;56.75;;;;;;;;5094901;28;8785;-70
2022/01/21 02:07:57;;;;;;;;;64.75;55.25;;;;;;;;5092240;28;8955;-70
2022/01/21 02:10:22;;;;;;;;;69.67;58.00;;;;;;;;5084061;28;8817;-70
2022/01/21 02:12:48;;;;;;;;;70.00;59.33;;;;;;;;5094481;28;8846;-70
2022/01/21 02:15:13;;;;;;;;;70.50;57.75;;;;;;;;5093297;28;8801;-70
2022/01/21 02:22:50;;;;;;;;;66.00;57.00;;;;;;;;5094423;28;8794;-70
2022/01/21 02:25:18;;;;;;;;;71.25;59.75;;;;;;;;5094603;28;8868;-69
2022/01/21 02:27:45;;;;;;;;;60.50;53.00;;;;;;;;5094242;28;8807;-70
2022/01/21 02:30:18;;;;;;;;;73.75;62.50;;;;;;;;5094479;28;8810;-69
2022/01/21 02:32:43;;;;;;;;;54.50;46.50;;;;;;;;5094383;28;8758;-70
2022/01/21 02:35:08;;;;;;;;;76.50;63.25;;;;;;;;5094112;28;9577;-69
2022/01/21 02:37:35;;;;;;;;;77.50;63.75;;;;;;;;5094621;28;8843;-70
2022/01/21 02:40:00;;;;;;;;;52.75;46.00;;;;;;;;5094381;28;8817;-69
2022/01/21 02:42:25;;;;;;;;;57.00;50.33;;;;;;;;5077988;28;8992;-70
2022/01/21 02:44:51;;;;;;;;;59.33;50.67;;;;;;;;5090113;28;8909;-69
2022/01/21 02:47:16;;;;;;;;;62.67;54.33;;;;;;;;5094214;28;9231;-69
2022/01/21 02:49:41;;;;;;;;;74.25;62.50;;;;;;;;5092324;28;9669;-69
2022/01/21 02:52:08;;;;;;;;;77.25;65.50;;;;;;;;5093961;28;8818;-69
2022/01/21 02:54:36;;;;;;;;;68.00;56.25;;;;;;;;5092853;28;9461;-69
2022/01/21 02:57:03;;;;;;;;;58.25;52.00;;;;;;;;5092554;28;9025;-69
2022/01/21 02:59:28;;;;;;;;;68.50;58.75;;;;;;;;5087884;28;8740;-69
2022/01/21 03:01:53;;;;;;;;;80.00;65.25;;;;;;;;5085241;28;8982;-70
2022/01/21 03:05:11;;;;;;;;;65.00;55.67;;;;;;;;5092075;28;9611;-69
2022/01/21 03:07:05;;;;;;;;;62.75;51.75;;;;;;;;5093207;28;11537;-69
2022/01/21 03:09:31;;;;;;;;;76.25;63.75;;;;;;;;5093748;28;8805;-69
2022/01/21 03:11:56;;;;;;;;;51.25;47.75;;;;;;;;5091707;28;9266;-69
2022/01/21 03:14:21;;;;;;;;;47.75;42.00;;;;;;;;5092209;28;8825;-70
2022/01/21 03:16:46;;;;;;;;;56.25;48.00;;;;;;;;5093398;28;9609;-69
2022/01/21 03:19:12;;;;;;;;;24.67;19.33;;;;;;;;5091854;28;8849;-69
2022/01/21 03:21:38;;;;;;;;;19.50;18.25;;;;;;;;5091909;28;8861;-69
2022/01/21 03:24:03;;;;;;;;;14.25;10.25;;;;;;;;5093737;28;8801;-70
2022/01/21 03:26:28;;;;;;;;;8.00;4.75;;;;;;;;5093438;28;9552;-69
2022/01/21 03:28:56;;;;;;;;;8.00;5.25;;;;;;;;5093389;28;8805;-70
2022/01/21 03:31:21;;;;;;;;;8.20;4.00;;;;;;;;5093210;28;8889;-69
2022/01/21 03:33:46;;;;;;;;;8.67;7.00;;;;;;;;5093380;28;8875;-69
2022/01/21 03:36:12;;;;;;;;;5.67;4.67;;;;;;;;5092994;28;11615;-70
2022/01/21 03:38:38;;;;;;;;;7.33;4.33;;;;;;;;5093478;28;8832;-69
2022/01/21 03:41:03;;;;;;;;;8.50;4.00;;;;;;;;5093070;28;8922;-70
2022/01/21 03:43:29;;;;;;;;;9.50;4.00;;;;;;;;5091004;28;8774;-69
2022/01/21 03:45:54;;;;;;;;;5.50;5.00;;;;;;;;5092969;28;8817;-70
2022/01/21 03:48:19;;;;;;;;;10.00;5.00;;;;;;;;5093324;28;8829;-70
2022/01/21 03:50:45;;;;;;;;;7.33;6.67;;;;;;;;5092381;28;8927;-70
2022/01/21 03:53:11;;;;;;;;;52.25;47.75;;;;;;;;5093319;28;8902;-70
2022/01/21 03:55:36;;;;;;;;;83.00;70.00;;;;;;;;5092593;28;9493;-70
2022/01/21 03:58:03;;;;;;;;;66.25;57.25;;;;;;;;5092587;28;8843;-70
2022/01/21 04:00:34;;;;;;;;;74.00;61.75;;;;;;;;5077577;28;9375;-70
2022/01/21 04:02:59;;;;;;;;;28.75;24.25;;;;;;;;5092888;28;8884;-70
2022/01/21 04:05:26;;;;;;;;;15.00;9.75;;;;;;;;5090753;28;8826;-70
2022/01/21 04:07:51;;;;;;;;;10.25;5.00;;;;;;;;5092866;28;8762;-70
2022/01/21 04:10:17;;;;;;;;;7.25;4.00;;;;;;;;5092003;28;8854;-70
2022/01/21 04:12:42;;;;;;;;;7.75;5.00;;;;;;;;5091087;28;9496;-70
2022/01/21 04:15:08;;;;;;;;;8.00;4.33;;;;;;;;5093057;28;8838;-70
2022/01/21 04:17:33;;;;;;;;;5.00;3.50;;;;;;;;5092958;28;8829;-70
2022/01/21 04:19:58;;;;;;;;;28.00;27.00;;;;;;;;5087768;28;8869;-70
2022/01/21 04:22:24;;;;;;;;;15.25;13.25;;;;;;;;5092914;28;9026;-70
2022/01/21 04:24:50;;;;;;;;;30.00;28.25;;;;;;;;5095411;28;8853;-69
2022/01/21 04:27:16;;;;;;;;;65.00;56.25;;;;;;;;5096611;28;8802;-70
2022/01/21 04:29:41;;;;;;;;;58.75;50.50;;;;;;;;5096173;28;8820;-70
2022/01/21 04:32:07;;;;;;;;;48.00;42.00;;;;;;;;5096455;28;8829;-69
2022/01/21 04:34:32;;;;;;;;;63.00;53.75;;;;;;;;5096059;28;8851;-69
2022/01/21 04:36:59;;;;;;;;;59.00;50.00;;;;;;;;5096102;28;8833;-69
2022/01/21 04:39:30;;;;;;;;;69.00;56.25;;;;;;;;5094866;28;11542;-70
2022/01/21 04:47:23;;;;;;;;;78.00;65.50;;;;;;;;5096144;28;9700;-70
2022/01/21 04:49:49;;;;;;;;;78.50;64.00;;;;;;;;5094099;28;8940;-70
2022/01/21 04:52:15;;;;;;;;;67.25;57.50;;;;;;;;5095981;28;8899;-70
2022/01/21 04:54:40;;;;;;;;;76.00;63.50;;;;;;;;5095732;28;8822;-69
2022/01/21 04:57:07;;;;;;;;;74.75;62.00;;;;;;;;5095825;28;8822;-70
2022/01/21 04:59:32;;;;;;;;;79.50;64.75;;;;;;;;5089240;28;8951;-70
2022/01/21 05:01:58;;;;;;;;;56.25;46.75;;;;;;;;5087244;28;8837;-69
2022/01/21 05:04:23;;;;;;;;;56.33;50.33;;;;;;;;5095835;28;8821;-69
2022/01/21 05:06:51;;;;;;;;;73.50;60.75;;;;;;;;5095464;28;8952;-70
2022/01/21 05:09:17;;;;;;;;;59.50;50.25;;;;;;;;5094483;28;9671;-70
2022/01/21 05:11:43;;;;;;;;;73.00;60.00;;;;;;;;5093886;28;8906;-70
2022/01/21 05:14:21;;;;;;;;;73.00;59.50;;;;;;;;5082299;28;8809;-70
2022/01/21 05:16:49;;;;;;;;;72.75;61.00;;;;;;;;5093804;28;9173;-70
2022/01/21 05:19:17;;;;;;;;;70.25;58.25;;;;;;;;5095408;28;8805;-70
2022/01/21 05:21:43;;;;;;;;;75.00;59.50;;;;;;;;5095028;28;8901;-70
2022/01/21 05:24:08;;;;;;;;;71.25;59.00;;;;;;;;5095772;28;8841;-70
2022/01/21 05:26:37;;;;;;;;;63.50;51.75;;;;;;;;5095436;28;8894;-70
2022/01/21 05:29:04;;;;;;;;;72.75;60.75;;;;;;;;5093892;28;8810;-70
2022/01/21 05:31:29;;;;;;;;;60.50;50.50;;;;;;;;5095471;28;8810;-70
2022/01/21 05:33:54;;;;;;;;;60.67;51.00;;;;;;;;5094906;28;9584;-70
2022/01/21 05:36:20;;;;;;;;;67.33;58.00;;;;;;;;5095249;28;8830;-69
2022/01/21 05:38:46;;;;;;;;;69.75;57.00;;;;;;;;5095118;28;10891;-70
2022/01/21 05:41:12;;;;;;;;;61.75;47.75;;;;;;;;5093754;28;9553;-70
2022/01/21 05:43:43;;;;;;;;;74.75;62.25;;;;;;;;5091307;28;8809;-70
2022/01/21 05:46:29;;;;;;;;;65.50;56.75;;;;;;;;5095097;28;9335;-70
2022/01/21 05:48:54;;;;;;;;;71.50;57.50;;;;;;;;5093189;28;8797;-69
2022/01/21 05:51:20;;;;;;;;;72.00;59.00;;;;;;;;5095010;28;9636;-70
2022/01/21 05:53:45;;;;;;;;;65.25;55.50;;;;;;;;5093442;28;10661;-70
2022/01/21 05:56:11;;;;;;;;;74.00;61.75;;;;;;;;5092812;28;8927;-70
2022/01/21 05:58:37;;;;;;;;;63.75;54.25;;;;;;;;5093325;28;8798;-70
2022/01/21 06:01:02;;;;;;;;;66.33;54.67;;;;;;;;5077908;28;9759;-70
2022/01/21 06:03:28;;;;;;;;;63.50;53.50;;;;;;;;5093361;28;8824;-70
2022/01/21 06:05:53;;;;;;;;;74.25;61.00;;;;;;;;5093586;28;8798;-70
2022/01/21 06:08:19;;;;;;;;;68.00;56.33;;;;;;;;5090693;28;8924;-69
2022/01/21 06:10:44;;;;;;;;;69.25;58.25;;;;;;;;5082107;28;8813;-70
2022/01/21 06:13:09;;;;;;;;;59.00;50.67;;;;;;;;5094527;28;8828;-70
2022/01/21 06:15:35;;;;;;;;;54.67;48.00;;;;;;;;5094661;28;9532;-70
2022/01/21 06:18:00;;;;;;;;;64.50;53.75;;;;;;;;5093380;28;8901;-69
2022/01/21 06:20:26;;;;;;;;;65.33;55.67;;;;;;;;5093886;28;8848;-69
2022/01/21 06:22:51;;;;;;;;;67.25;57.00;;;;;;;;5094114;28;9318;-69
2022/01/21 06:25:17;;;;;;;;;75.00;61.75;;;;;;;;5092712;28;8837;-69
2022/01/21 06:27:44;;;;;;;;;62.75;54.00;;;;;;;;5093199;28;8871;-69
2022/01/21 06:30:10;;;;;;;;;66.25;56.50;;;;;;;;5093970;28;8798;-69
2022/01/21 06:32:35;;;;;;;;;65.50;54.50;;;;;;;;5094339;28;8948;-69
2022/01/21 06:35:00;;;;;;;;;64.00;54.33;;;;;;;;5093760;28;8825;-69
2022/01/21 06:37:25;;;;;;;;;63.33;54.33;;;;;;;;5093732;28;8852;-69
2022/01/21 06:39:51;;;;;;;;;66.33;57.67;;;;;;;;5092368;28;11617;-69
2022/01/21 06:42:22;;;;;;;;;70.00;58.67;;;;;;;;5090754;28;9577;-69
2022/01/21 06:44:47;;;;;;;;;62.75;52.50;;;;;;;;5091373;28;8780;-69
2022/01/21 06:47:12;;;;;;;;;64.67;55.33;;;;;;;;5093878;28;8802;-69
2022/01/21 06:49:38;;;;;;;;;65.50;54.75;;;;;;;;5091326;28;10851;-69
2022/01/21 06:52:03;;;;;;;;;35.25;30.25;;;;;;;;5093608;28;8829;-69
2022/01/21 06:54:28;;;;;;;;;44.50;38.75;;;;;;;;5092577;28;8829;-69
2022/01/21 06:56:54;;;;;;;;;45.75;41.50;;;;;;;;5092210;28;8817;-69
2022/01/21 06:59:19;;;;;;;;;73.67;61.67;;;;;;;;5093885;28;8798;-69
2022/01/21 07:01:44;;;;;;;;;66.33;56.33;;;;;;;;5091960;28;11524;-69
2022/01/21 07:04:10;;;;;;;;;60.50;51.00;;;;;;;;5092076;28;10971;-70
2022/01/21 07:06:35;;;;;;;;;45.75;43.25;;;;;;;;5091656;28;8846;-70
2022/01/21 07:09:00;;;;;;;;;62.33;53.33;;;;;;;;5093853;28;8918;-70
2022/01/21 07:11:26;;;;;;;;;62.25;53.25;;;;;;;;5093660;28;10427;-70
2022/01/21 07:13:51;;;;;;;;;56.33;48.00;;;;;;;;5093488;28;8915;-71
2022/01/21 07:16:16;;;;;;;;;79.67;63.67;;;;;;;;5093591;28;11867;-70
2022/01/21 07:18:42;;;;;;;;;76.00;62.25;;;;;;;;5093431;28;8817;-70
2022/01/21 07:21:07;;;;;;;;;75.00;62.75;;;;;;;;5091743;28;8845;-70
2022/01/21 07:23:32;;;;;;;;;72.33;60.00;;;;;;;;5092085;28;8829;-70
2022/01/21 07:25:58;;;;;;;;;63.33;53.33;;;;;;;;5093144;28;8856;-70
2022/01/21 07:28:23;;;;;;;;;72.67;59.33;;;;;;;;5093397;28;8928;-70
2022/01/21 07:30:49;;;;;;;;;75.33;63.67;;;;;;;;5093139;28;10074;-70
2022/01/21 07:33:14;;;;;;;;;62.00;53.67;;;;;;;;5093452;28;11610;-70
2022/01/21 07:35:40;;;;;;;;;62.67;52.00;;;;;;;;5092623;28;11056;-70
2022/01/21 07:38:05;;;;;;;;;66.25;55.00;;;;;;;;5093448;28;11540;-70
2022/01/21 07:40:31;;;;;;;;;73.67;61.00;;;;;;;;5093164;28;8817;-70
2022/01/21 07:42:56;;;;;;;;;73.50;60.25;;;;;;;;5085912;28;11720;-70
2022/01/21 07:45:21;;;;;;;;;79.67;65.67;;;;;;;;5093096;28;8810;-70
2022/01/21 07:47:47;;;;;;;;;54.75;48.25;;;;;;;;5093133;28;10436;-70
2022/01/21 07:50:12;;;;;;;;;72.33;58.67;;;;;;;;5091370;28;8798;-70
2022/01/21 07:52:37;;;;;;;;;57.33;50.67;;;;;;;;5093156;28;8836;-71
2022/01/21 07:55:03;;;;;;;;;71.67;59.67;;;;;;;;5092907;28;8813;-70
2022/01/21 07:57:28;;;;;;;;;69.25;58.25;;;;;;;;5092381;28;8813;-70
2022/01/21 07:59:54;;;;;;;;;48.00;45.33;;;;;;;;5081028;28;8828;-70
2022/01/21 08:02:19;;;;;;;;;67.50;56.75;;;;;;;;5089355;28;8898;-71
2022/01/21 08:04:45;;;;;;;;;66.00;54.67;;;;;;;;5092676;28;8818;-71
2022/01/21 08:07:11;;;;;;;;;71.33;60.67;;;;;;;;5083537;28;11506;-71
2022/01/21 08:09:36;;;;;;;;;69.00;58.50;;;;;;;;5090451;28;8829;-71
2022/01/21 08:12:02;;;;;;;;;78.00;64.00;;;;;;;;5091866;28;8830;-70
2022/01/21 08:14:27;;;;;;;;;63.00;52.50;;;;;;;;5092727;28;8832;-69
2022/01/21 08:16:54;;;;;;;;;61.75;53.00;;;;;;;;5092531;28;8876;-69
2022/01/21 08:19:19;;;;;;;;;71.00;60.50;;;;;;;;5091090;28;9017;-69
2022/01/21 08:21:45;;;;;;;;;73.33;57.33;;;;;;;;5091750;28;8845;-70
2022/01/21 08:24:10;;;;;;;;;76.33;64.33;;;;;;;;5092826;28;12365;-70
2022/01/21 08:26:36;;;;;;;;;66.75;54.50;;;;;;;;5092348;28;8806;-69
2022/01/21 08:29:02;;;;;;;;;88.00;72.40;;;;;;;;5091634;28;8778;-70
2022/01/21 08:31:27;;;;;;;;;68.33;58.33;;;;;;;;5092312;28;8828;-68
2022/01/21 08:33:53;;;;;;;;;71.75;59.75;;;;;;;;5092092;28;11600;-69
2022/01/21 08:36:19;;;;;;;;;76.25;64.25;;;;;;;;5090789;28;8828;-70
2022/01/21 08:38:45;;;;;;;;;84.60;69.60;;;;;;;;5090491;28;8797;-70
2022/01/21 08:41:10;;;;;;;;;84.25;69.50;;;;;;;;5084927;28;8875;-69
2022/01/21 08:43:36;;;;;;;;;89.75;74.00;;;;;;;;5091498;28;8833;-70
2022/01/21 08:46:02;;;;;;;;;104.00;96.33;;;;;;;;5089437;28;8790;-70
2022/01/21 08:48:28;;;;;;;;;112.20;106.40;;;;;;;;5089321;28;8867;-70
2022/01/21 08:50:55;;;;;;;;;98.00;85.50;;;;;;;;5089975;28;9659;-70
2022/01/21 08:53:36;;;;;;;;;110.80;105.20;;;;;;;;5085541;28;8817;-70
2022/01/21 08:56:02;;;;;;;;;113.75;111.75;;;;;;;;5091509;28;9730;-70
2022/01/21 08:58:28;;;;;;;;;100.25;90.25;;;;;;;;5091329;28;10495;-70
2022/01/21 09:00:53;;;;;;;;;119.00;114.75;;;;;;;;5091733;28;8818;-70
2022/01/21 09:03:18;;;;;;;;;108.75;105.75;;;;;;;;5092134;28;8802;-71
2022/01/21 09:05:48;;;;;;;;;110.67;108.00;;;;;;;;5091847;28;8822;-69
2022/01/21 09:08:15;;;;;;;;;105.25;99.25;;;;;;;;5090144;28;9633;-69
2022/01/21 09:10:40;;;;;;;;;99.00;89.25;;;;;;;;5094312;28;9740;-70
2022/01/21 09:13:05;;;;;;;;;105.33;99.00;;;;;;;;5095955;28;8806;-70
2022/01/21 09:15:33;;;;;;;;;98.75;86.25;;;;;;;;5095383;28;8825;-69
2022/01/21 09:18:03;;;;;;;;;89.25;74.25;;;;;;;;5095619;28;8920;-70
2022/01/21 09:20:29;;;;;;;;;71.33;59.33;;;;;;;;5086717;28;8825;-70
2022/01/21 09:22:54;;;;;;;;;91.67;74.67;;;;;;;;5094144;28;8933;-70
2022/01/21 09:25:19;;;;;;;;;82.67;66.00;;;;;;;;5093773;28;8828;-70
2022/01/21 09:27:45;;;;;;;;;68.75;57.00;;;;;;;;5093766;28;8928;-70
2022/01/21 09:30:10;;;;;;;;;69.50;57.00;;;;;;;;5094261;28;8816;-70
2022/01/21 09:32:36;;;;;;;;;83.00;67.00;;;;;;;;5094818;28;8914;-69
2022/01/21 09:35:01;;;;;;;;;69.33;58.33;;;;;;;;5095355;28;8844;-70
2022/01/21 09:37:26;;;;;;;;;62.33;54.00;;;;;;;;5094867;28;9565;-68
2022/01/21 09:39:51;;;;;;;;;62.75;50.50;;;;;;;;5095501;28;8847;-68
2022/01/21 09:42:17;;;;;;;;;56.00;49.50;;;;;;;;5095092;28;8899;-69
2022/01/21 09:44:44;;;;;;;;;56.50;48.25;;;;;;;;5095000;28;8793;-70
2022/01/21 09:47:12;;;;;;;;;58.50;49.00;;;;;;;;5095182;28;8766;-68
2022/01/21 09:49:41;;;;;;;;;64.50;52.00;;;;;;;;5093066;28;8813;-68
2022/01/21 09:52:08;;;;;;;;;74.00;60.25;;;;;;;;5094478;28;8794;-68
2022/01/21 09:54:35;;;;;;;;;56.50;49.50;;;;;;;;5095182;28;8801;-68
2022/01/21 09:57:01;;;;;;;;;75.50;62.25;;;;;;;;5093935;28;8790;-69
2022/01/21 09:59:28;;;;;;;;;59.50;48.25;;;;;;;;5091034;28;9722;-69
2022/01/21 10:02:00;;;;;;;;;55.25;46.50;;;;;;;;5094314;28;8820;-70
2022/01/21 10:04:26;;;;;;;;;66.75;54.25;;;;;;;;5091046;28;11499;-70
2022/01/21 10:06:54;;;;;;;;;63.00;53.00;;;;;;;;5094821;28;8813;-69
2022/01/21 10:09:21;;;;;;;;;77.67;62.33;;;;;;;;5093316;28;9824;-70
2022/01/21 10:11:49;;;;;;;;;74.25;60.25;;;;;;;;5094172;28;8782;-70
2022/01/21 10:14:15;;;;;;;;;68.50;57.50;;;;;;;;5093923;28;8818;-69
2022/01/21 10:16:43;;;;;;;;;70.50;58.75;;;;;;;;5092077;28;8793;-69
2022/01/21 10:19:10;;;;;;;;;68.50;58.25;;;;;;;;5092022;28;8916;-69
2022/01/21 10:21:37;;;;;;;;;58.25;48.75;;;;;;;;5091648;28;8821;-70
2022/01/21 10:24:04;;;;;;;;;64.00;54.00;;;;;;;;5093884;28;8833;-69
2022/01/21 10:26:29;;;;;;;;;58.75;49.00;;;;;;;;5094323;28;9683;-69
2022/01/21 10:28:55;;;;;;;;;70.33;58.33;;;;;;;;5094184;28;8797;-69
2022/01/21 10:31:21;;;;;;;;;69.75;58.75;;;;;;;;5094062;28;11578;-69
2022/01/21 10:33:51;;;;;;;;;66.25;54.25;;;;;;;;5092197;28;8828;-69
2022/01/21 10:36:27;;;;;;;;;67.75;57.75;;;;;;;;5094110;28;9003;-69
2022/01/21 10:39:04;;;;;;;;;76.75;62.50;;;;;;;;5093575;28;8828;-69
2022/01/21 10:41:31;;;;;;;;;78.00;62.00;;;;;;;;5092140;28;8809;-69
2022/01/21 10:44:11;;;;;;;;;70.75;60.00;;;;;;;;5093685;28;8832;-70
2022/01/21 10:46:37;;;;;;;;;78.75;63.00;;;;;;;;5080927;28;8782;-70
2022/01/21 10:49:07;;;;;;;;;71.50;58.00;;;;;;;;5093270;28;10119;-69
2022/01/21 10:51:34;;;;;;;;;85.00;69.50;;;;;;;;5093992;28;8782;-70
2022/01/21 10:54:11;;;;;;;;;69.00;56.67;;;;;;;;5093501;28;12829;-69
2022/01/21 10:56:37;;;;;;;;;72.25;59.75;;;;;;;;5092718;28;8778;-69
2022/01/21 10:59:02;;;;;;;;;73.33;61.67;;;;;;;;5092346;28;9090;-70
2022/01/21 11:01:30;;;;;;;;;60.00;49.33;;;;;;;;5085304;28;11602;-70
2022/01/21 11:04:00;;;;;;;;;71.00;58.00;;;;;;;;5091181;28;8878;-70
2022/01/21 11:06:30;;;;;;;;;67.25;55.00;;;;;;;;5093049;28;8813;-70
2022/01/21 11:09:15;;;;;;;;;62.75;52.00;;;;;;;;5092183;28;8782;-70
2022/01/21 11:11:40;;;;;;;;;69.25;57.25;;;;;;;;5093485;28;8793;-70
2022/01/21 11:14:10;;;;;;;;;65.00;55.75;;;;;;;;5093247;28;8878;-70
2022/01/21 11:16:36;;;;;;;;;69.00;56.75;;;;;;;;5093301;28;8775;-70
2022/01/21 11:19:08;;;;;;;;;56.00;47.25;;;;;;;;5090588;28;8870;-70
2022/01/21 11:21:39;;;;;;;;;62.25;51.00;;;;;;;;5091045;28;8833;-70
2022/01/21 11:24:05;;;;;;;;;70.50;59.00;;;;;;;;5091329;28;8798;-70
2022/01/21 11:26:31;;;;;;;;;60.75;50.00;;;;;;;;5091648;28;8781;-70
2022/01/21 11:28:56;;;;;;;;;57.75;49.75;;;;;;;;5092883;28;9641;-70
2022/01/21 11:31:23;;;;;;;;;61.50;53.50;;;;;;;;5093171;28;9527;-70
2022/01/21 11:33:49;;;;;;;;;61.50;49.25;;;;;;;;5092725;28;8800;-70
2022/01/21 11:36:14;;;;;;;;;65.50;53.75;;;;;;;;5093214;28;8802;-70
2022/01/21 11:38:43;;;;;;;;;63.00;53.00;;;;;;;;5093057;28;8813;-69
2022/01/21 11:41:09;;;;;;;;;73.25;59.25;;;;;;;;5093443;28;8824;-70
2022/01/21 11:43:35;;;;;;;;;71.75;58.50;;;;;;;;5086266;28;8901;-69
2022/01/21 11:46:17;;;;;;;;;54.50;46.50;;;;;;;;5080400;28;8886;-70
2022/01/21 11:48:50;;;;;;;;;72.00;56.75;;;;;;;;5092601;28;8794;-70
2022/01/21 11:51:21;;;;;;;;;63.75;54.25;;;;;;;;5093378;28;8912;-70
2022/01/21 11:53:48;;;;;;;;;71.25;56.25;;;;;;;;5092814;28;8802;-70
2022/01/21 11:56:34;;;;;;;;;80.25;64.25;;;;;;;;5093042;28;8738;-70
2022/01/21 11:59:09;;;;;;;;;68.75;58.00;;;;;;;;5080046;28;8881;-70
2022/01/21 12:01:41;;;;;;;;;50.25;44.00;;;;;;;;5092778;28;8849;-70
2022/01/21 12:04:07;;;;;;;;;74.50;59.50;;;;;;;;5091480;28;9327;-70
2022/01/21 12:06:33;;;;;;;;;82.00;67.00;;;;;;;;5093039;28;8879;-70
2022/01/21 12:09:00;;;;;;;;;75.25;61.00;;;;;;;;5092469;28;8774;-70
2022/01/21 12:11:30;;;;;;;;;63.75;54.00;;;;;;;;5092805;28;8821;-71
2022/01/21 12:13:56;;;;;;;;;89.40;76.20;;;;;;;;5092285;28;8802;-70
2022/01/21 12:16:47;;;;;;;;;75.75;61.00;;;;;;;;5091130;28;9038;-70
2022/01/21 12:19:21;;;;;;;;;68.50;56.75;;;;;;;;5090030;28;8785;-70
2022/01/21 12:21:48;;;;;;;;;84.33;68.33;;;;;;;;5090689;28;8819;-70
2022/01/21 12:24:16;;;;;;;;;74.25;60.25;;;;;;;;5082037;28;11587;-70
2022/01/21 12:26:59;;;;;;;;;74.00;59.40;;;;;;;;5089606;28;8797;-70
2022/01/21 12:29:26;;;;;;;;;78.80;64.60;;;;;;;;5090872;28;8817;-70
2022/01/21 12:32:18;;;;;;;;;84.40;69.40;;;;;;;;5077336;28;8825;-70
2022/01/21 12:35:16;;;;;;;;;68.25;57.00;;;;;;;;5092048;28;8821;-70
2022/01/21 12:38:05;;;;;;;;;62.50;52.50;;;;;;;;5087728;28;8770;-70
2022/01/21 12:40:31;;;;;;;;;62.00;50.75;;;;;;;;5092621;28;8793;-70
2022/01/21 12:42:56;;;;;;;;;69.33;57.67;;;;;;;;5088804;28;8851;-70
2022/01/21 12:45:23;;;;;;;;;78.00;63.75;;;;;;;;5094708;28;9426;-70
2022/01/21 12:47:48;;;;;;;;;71.75;60.00;;;;;;;;5095636;28;8802;-70
2022/01/21 12:50:18;;;;;;;;;70.33;57.00;;;;;;;;5093855;28;8809;-70
2022/01/21 12:52:57;;;;;;;;;75.00;60.25;;;;;;;;5095507;28;8844;-70
2022/01/21 12:58:14;;;;;;;;;58.50;49.75;;;;;;;;5095724;28;8786;-70
2022/01/21 13:00:40;;;;;;;;;83.00;68.20;;;;;;;;5095274;28;8936;-70
2022/01/21 13:03:15;;;;;;;;;74.75;61.50;;;;;;;;5095913;28;8984;-70
2022/01/21 13:05:44;;;;;;;;;58.00;49.00;;;;;;;;5095093;28;8908;-70
2022/01/21 13:08:32;;;;;;;;;64.00;54.33;;;;;;;;5095418;28;8802;-71
2022/01/21 13:10:57;;;;;;;;;57.50;48.00;;;;;;;;5083989;28;8802;-70
2022/01/21 13:13:35;;;;;;;;;67.50;57.00;;;;;;;;5095542;28;8838;-70
2022/01/21 13:16:01;;;;;;;;;65.00;54.33;;;;;;;;5095321;28;8774;-70
2022/01/21 13:18:38;;;;;;;;;69.50;58.00;;;;;;;;5095061;28;8810;-70
2022/01/21 13:21:07;;;;;;;;;78.25;64.75;;;;;;;;5089400;28;9687;-70
2022/01/21 13:23:55;;;;;;;;;72.00;58.67;;;;;;;;5090517;28;8725;-70
2022/01/21 13:26:23;;;;;;;;;68.33;55.33;;;;;;;;5089625;28;8786;-70
2022/01/21 13:29:08;;;;;;;;;48.25;42.25;;;;;;;;5094657;28;11637;-71
2022/01/21 13:31:50;;;;;;;;;73.20;61.20;;;;;;;;5094871;27;8974;-71
2022/01/21 13:34:17;;;;;;;;;72.60;60.20;;;;;;;;5094734;28;8809;-70
2022/01/21 13:36:50;;;;;;;;;75.00;62.00;;;;;;;;5095637;28;8794;-70
2022/01/21 13:39:17;;;;;;;;;68.50;58.00;;;;;;;;5093978;28;8790;-70
2022/01/21 13:41:50;;;;;;;;;65.75;55.00;;;;;;;;5094954;28;8813;-70
2022/01/21 13:44:27;;;;;;;;;71.00;58.00;;;;;;;;5094769;28;8869;-70
2022/01/21 13:46:52;;;;;;;;;79.50;64.25;;;;;;;;5094934;28;8820;-71
2022/01/21 13:49:21;;;;;;;;;72.75;60.75;;;;;;;;5094508;28;8916;-70
2022/01/21 13:51:54;;;;;;;;;67.75;55.50;;;;;;;;5094707;28;9657;-71
2022/01/21 13:54:27;;;;;;;;;68.50;56.00;;;;;;;;5094779;28;8794;-70
2022/01/21 13:56:52;;;;;;;;;58.20;50.60;;;;;;;;5094504;28;9679;-70
2022/01/21 13:59:18;;;;;;;;;57.33;48.33;;;;;;;;5094898;28;8818;-70
2022/01/21 14:01:43;;;;;;;;;56.00;47.50;;;;;;;;5094720;28;8833;-71
2022/01/21 14:04:08;;;;;;;;;67.33;55.33;;;;;;;;5094536;28;8846;-70
2022/01/21 14:06:34;;;;;;;;;82.25;68.00;;;;;;;;5093229;28;9564;-70
2022/01/21 14:09:01;;;;;;;;;87.67;74.00;;;;;;;;5094204;28;8850;-70
2022/01/21 14:11:45;;;;;;;;;79.50;65.25;;;;;;;;5093226;28;8848;-70
2022/01/21 14:14:10;;;;;;;;;85.50;70.00;;;;;;;;5094063;28;8786;-70
2022/01/21 14:16:40;;;;;;;;;81.00;66.75;;;;;;;;5094580;28;8848;-70
2022/01/21 14:19:09;;;;;;;;;84.40;71.60;;;;;;;;5092538;28;8770;-70
2022/01/21 14:21:34;;;;;;;;;80.50;66.25;;;;;;;;5092035;28;8778;-70
2022/01/21 14:24:13;;;;;;;;;79.50;65.00;;;;;;;;5085615;28;9580;-70
2022/01/21 14:26:40;;;;;;;;;78.20;63.20;;;;;;;;5091139;28;8790;-70
2022/01/21 14:29:06;;;;;;;;;70.50;59.25;;;;;;;;5092783;28;8828;-70
2022/01/21 14:31:34;;;;;;;;;78.00;63.00;;;;;;;;5094207;28;8805;-70
2022/01/21 14:34:00;;;;;;;;;82.75;68.75;;;;;;;;5094209;28;8827;-70
2022/01/21 14:36:26;;;;;;;;;92.50;81.50;;;;;;;;5093775;28;8865;-70
2022/01/21 14:38:53;;;;;;;;;91.25;76.75;;;;;;;;5094159;28;9326;-70
2022/01/21 14:41:19;;;;;;;;;95.25;86.25;;;;;;;;5093921;28;8813;-70
2022/01/21 14:43:49;;;;;;;;;91.50;81.00;;;;;;;;5090449;28;8829;-70
2022/01/21 14:46:23;;;;;;;;;72.75;60.50;;;;;;;;5094052;28;8795;-70
2022/01/21 14:48:59;;;;;;;;;69.75;56.25;;;;;;;;5093487;28;8785;-70
2022/01/21 14:51:40;;;;;;;;;51.00;44.25;;;;;;;;5093951;28;8810;-70
2022/01/21 14:54:09;;;;;;;;;91.60;80.00;;;;;;;;5092792;28;8806;-70
2022/01/21 14:56:34;;;;;;;;;90.40;78.20;;;;;;;;5094159;28;8782;-70
2022/01/21 14:59:15;;;;;;;;;84.00;68.50;;;;;;;;5092413;28;8810;-70
2022/01/21 15:02:01;;;;;;;;;86.00;69.00;;;;;;;;5094081;28;11564;-70
2022/01/21 15:04:27;;;;;;;;;80.25;66.25;;;;;;;;5082780;28;8814;-70
2022/01/21 15:07:10;;;;;;;;;72.25;60.00;;;;;;;;5093143;28;9912;-70
2022/01/21 15:09:38;;;;;;;;;63.25;52.75;;;;;;;;5093835;28;8794;-70
2022/01/21 15:14:23;;;;;;;;;71.00;59.00;;;;;;;;5093602;28;8774;-70
2022/01/21 15:14:58;;;;;;;;;65.00;54.80;;;;;;;;5093368;28;8898;-70
2022/01/21 15:17:23;;;;;;;;;57.00;48.00;;;;;;;;5093615;28;8910;-70
2022/01/21 15:19:49;;;;;;;;;67.50;56.75;;;;;;;;5088267;28;8901;-70